createdAt,value
2018-03-27T03:33:53.181Z,0.45
2018-03-27T03:36:20.700Z,0.46
2018-03-27T03:38:48.228Z,0.45
2018-03-27T03:41:16.529Z,0.50
2018-03-27T03:43:44.054Z,0.52
2018-03-27T03:46:11.587Z,0.48
2018-03-27T03:48:39.144Z,0.49
2018-03-27T03:51:06.699Z,0.40
2018-03-27T03:53:34.276Z,0.36
2018-03-27T03:56:01.766Z,0.34
2018-03-27T03:58:29.264Z,0.33
2018-03-27T04:00:56.781Z,0.35
2018-03-27T04:03:24.277Z,0.34
2018-03-27T04:05:51.830Z,0.37
2018-03-27T04:08:19.344Z,0.35
2018-03-27T04:10:46.855Z,0.39
2018-03-27T04:13:14.916Z,0.39
2018-03-27T04:15:42.439Z,0.39
2018-03-27T04:18:09.948Z,0.37
2018-03-27T04:20:37.456Z,0.36
2018-03-27T04:23:05.015Z,0.37
2018-03-27T04:25:32.520Z,0.34
2018-03-27T04:28:00.049Z,0.33
2018-03-27T04:30:27.549Z,0.34
2018-03-27T04:32:55.128Z,0.34
2018-03-27T04:35:22.649Z,0.36
2018-03-27T04:37:50.173Z,0.31
2018-03-27T04:40:17.689Z,0.29
2018-03-27T04:42:45.227Z,0.31
2018-03-27T04:45:12.753Z,0.34
2018-03-27T04:47:40.278Z,0.34
2018-03-27T04:50:07.789Z,0.33
2018-03-27T04:52:35.345Z,0.28
2018-03-27T04:55:02.888Z,0.31
2018-03-27T04:57:30.407Z,0.34
2018-03-27T04:59:57.932Z,0.32
2018-03-27T05:02:25.474Z,0.35
2018-03-27T05:04:52.998Z,0.30
2018-03-27T05:07:20.511Z,0.31
2018-03-27T05:09:48.051Z,0.32
2018-03-27T05:12:15.650Z,0.34
2018-03-27T05:14:43.209Z,0.31
2018-03-27T05:17:10.751Z,0.29
2018-03-27T05:19:38.343Z,0.29
2018-03-27T05:22:05.853Z,0.21
2018-03-27T05:24:33.397Z,0.20
2018-03-27T05:27:00.930Z,0.22
2018-03-27T05:29:28.921Z,0.21
2018-03-27T05:31:57.133Z,0.25
2018-03-27T05:34:24.868Z,0.30
2018-03-27T05:36:52.412Z,0.30
2018-03-27T05:39:19.975Z,0.31
2018-03-27T05:41:47.559Z,0.35
2018-03-27T05:44:15.139Z,0.41
2018-03-27T05:46:42.716Z,0.40
2018-03-27T05:49:10.288Z,0.47
2018-03-27T05:51:37.816Z,0.50
2018-03-27T05:54:05.345Z,0.60
2018-03-27T05:56:34.341Z,0.66
2018-03-27T05:59:01.897Z,0.93
2018-03-27T06:01:29.390Z,1.41
2018-03-27T06:03:56.905Z,1.61
2018-03-27T06:06:24.422Z,2.08
2018-03-27T06:08:51.927Z,2.07
2018-03-27T06:11:19.456Z,2.00
2018-03-27T06:13:46.967Z,1.99
2018-03-27T06:16:14.485Z,2.56
2018-03-27T06:18:41.990Z,3.09
2018-03-27T06:21:09.502Z,3.18
2018-03-27T06:23:36.992Z,3.33
2018-03-27T06:26:04.538Z,3.12
2018-03-27T06:28:32.033Z,3.04
2018-03-27T06:30:59.541Z,2.73
2018-03-27T06:33:27.064Z,2.64
2018-03-27T06:35:54.567Z,2.69
2018-03-27T06:38:22.120Z,2.99
2018-03-27T06:40:49.678Z,3.09
2018-03-27T06:43:17.172Z,3.33
2018-03-27T06:45:44.701Z,3.54
2018-03-27T06:48:12.214Z,3.87
2018-03-27T06:50:39.724Z,4.16
2018-03-27T06:53:07.248Z,4.46
2018-03-27T06:55:34.807Z,4.69
2018-03-27T06:58:02.310Z,4.99
2018-03-27T07:00:29.821Z,4.87
2018-03-27T07:02:57.393Z,5.09
2018-03-27T07:05:24.994Z,5.13
2018-03-27T07:07:52.463Z,5.11
2018-03-27T07:10:20.016Z,5.08
2018-03-27T07:12:47.582Z,5.05
2018-03-27T07:15:15.080Z,5.01
2018-03-27T07:17:42.593Z,5.10
2018-03-27T07:20:10.105Z,4.82
2018-03-27T07:22:37.643Z,5.35
2018-03-27T07:25:05.148Z,5.63
2018-03-27T07:27:32.651Z,5.59
2018-03-27T07:30:00.179Z,5.52
2018-03-27T07:32:27.684Z,5.99
2018-03-27T07:34:55.202Z,6.60
2018-03-27T07:37:22.732Z,6.85
2018-03-27T07:39:50.261Z,6.98
2018-03-27T07:42:17.829Z,7.36
2018-03-27T07:44:45.344Z,7.59
2018-03-27T07:47:12.870Z,7.59
2018-03-27T07:49:40.402Z,8.12
2018-03-27T07:52:07.941Z,8.55
2018-03-27T07:54:35.465Z,8.95
2018-03-27T07:57:02.995Z,8.90
2018-03-27T07:59:30.547Z,9.24
2018-03-27T08:01:58.045Z,9.28
2018-03-27T08:04:25.556Z,9.47
2018-03-27T08:06:53.084Z,9.47
2018-03-27T08:09:20.615Z,9.61
2018-03-27T08:11:48.136Z,9.35
2018-03-27T08:14:15.674Z,9.51
2018-03-27T08:16:43.215Z,9.77
2018-03-27T08:19:10.750Z,9.36
2018-03-27T08:21:38.263Z,10.08
2018-03-27T08:24:05.879Z,10.02
2018-03-27T08:26:33.329Z,10.61
2018-03-27T08:29:00.872Z,10.31
2018-03-27T08:31:28.443Z,11.34
2018-03-27T08:33:55.952Z,11.47
2018-03-27T08:36:23.573Z,11.09
2018-03-27T08:38:51.040Z,11.33
2018-03-27T08:41:18.595Z,10.62
2018-03-27T08:43:46.129Z,9.27
2018-03-27T08:46:13.651Z,9.98
2018-03-27T08:48:41.167Z,9.99
2018-03-27T08:51:08.693Z,9.96
2018-03-27T08:53:36.209Z,9.42
2018-03-27T08:56:03.861Z,9.91
2018-03-27T08:58:31.354Z,8.95
2018-03-27T09:00:58.898Z,9.14
2018-03-27T09:03:26.531Z,9.35
2018-03-27T09:05:54.096Z,9.26
2018-03-27T09:08:21.588Z,8.28
2018-03-27T09:10:49.147Z,8.10
2018-03-27T09:13:16.713Z,7.96
2018-03-27T09:15:44.251Z,8.36
2018-03-27T09:18:11.787Z,8.56
2018-03-27T09:20:39.323Z,8.77
2018-03-27T09:23:06.866Z,9.07
2018-03-27T09:25:34.396Z,9.22
2018-03-27T09:28:01.923Z,9.01
2018-03-27T09:30:29.499Z,9.00
2018-03-27T09:32:56.993Z,8.43
2018-03-27T09:35:24.538Z,8.35
2018-03-27T09:37:52.057Z,8.29
2018-03-27T09:40:19.645Z,8.25
2018-03-27T09:42:47.129Z,8.34
2018-03-27T09:45:14.650Z,8.48
2018-03-27T09:47:42.154Z,9.11
2018-03-27T09:50:09.681Z,8.86
2018-03-27T09:52:37.234Z,8.83
2018-03-27T09:55:04.773Z,8.82
2018-03-27T09:57:32.287Z,9.18
2018-03-27T09:59:59.816Z,9.28
2018-03-27T10:02:27.334Z,9.26
2018-03-27T10:04:54.845Z,9.01
2018-03-27T10:07:22.370Z,9.37
2018-03-27T10:09:49.909Z,8.48
2018-03-27T10:12:17.413Z,9.14
2018-03-27T10:14:45.029Z,9.18
2018-03-27T10:17:12.557Z,8.41
2018-03-27T10:19:40.119Z,8.89
2018-03-27T10:22:07.669Z,8.69
2018-03-27T10:24:35.185Z,8.55
2018-03-27T10:27:02.682Z,9.13
2018-03-27T10:29:30.208Z,8.93
2018-03-27T10:31:57.749Z,9.01
2018-03-27T10:34:25.281Z,8.68
2018-03-27T10:36:52.788Z,8.74
2018-03-27T10:39:20.329Z,8.47
2018-03-27T10:41:47.836Z,9.13
2018-03-27T10:44:15.354Z,9.09
2018-03-27T10:46:42.882Z,9.01
2018-03-27T10:49:10.412Z,9.11
2018-03-27T10:51:37.959Z,9.24
2018-03-27T10:54:05.465Z,9.00
2018-03-27T10:56:32.967Z,9.27
2018-03-27T10:59:00.547Z,9.54
2018-03-27T11:01:28.073Z,9.65
2018-03-27T11:03:55.619Z,9.63
2018-03-27T11:06:23.137Z,9.49
2018-03-27T11:08:50.649Z,9.74
2018-03-27T11:11:18.148Z,9.90
2018-03-27T11:13:45.664Z,9.46
2018-03-27T11:16:13.187Z,9.66
2018-03-27T11:18:40.754Z,9.85
2018-03-27T11:21:08.281Z,9.66
2018-03-27T11:23:35.923Z,9.52
2018-03-27T11:26:03.560Z,9.40
2018-03-27T11:28:31.084Z,9.37
2018-03-27T11:30:58.585Z,9.60
2018-03-27T11:33:26.081Z,9.44
2018-03-27T11:35:53.605Z,9.32
2018-03-27T11:38:21.139Z,9.20
2018-03-27T11:40:48.657Z,9.25
2018-03-27T11:43:16.174Z,9.35
2018-03-27T11:45:43.685Z,9.48
2018-03-27T11:48:11.193Z,9.84
2018-03-27T11:50:38.752Z,9.81
2018-03-27T11:53:06.348Z,9.65
2018-03-27T11:55:33.842Z,9.70
2018-03-27T11:58:01.389Z,9.78
2018-03-27T12:00:28.876Z,9.54
2018-03-27T12:02:56.413Z,9.54
2018-03-27T12:05:23.931Z,9.95
2018-03-27T12:07:51.474Z,9.86
2018-03-27T12:10:19.041Z,10.15
2018-03-27T12:12:46.557Z,10.34
2018-03-27T12:15:14.101Z,10.51
2018-03-27T12:17:41.604Z,9.76
2018-03-27T12:20:09.131Z,9.75
2018-03-27T12:22:36.663Z,9.96
2018-03-27T12:25:04.174Z,10.23
2018-03-27T12:27:31.711Z,10.39
2018-03-27T12:29:59.221Z,10.48
2018-03-27T12:32:26.750Z,10.13
2018-03-27T12:34:54.253Z,9.94
2018-03-27T12:37:21.794Z,10.17
2018-03-27T12:39:49.383Z,10.26
2018-03-27T12:42:16.964Z,10.06
2018-03-27T12:44:44.493Z,9.92
2018-03-27T12:47:12.105Z,9.85
2018-03-27T12:49:39.671Z,9.81
2018-03-27T12:52:07.165Z,9.97
2018-03-27T12:54:34.676Z,10.23
2018-03-27T12:57:02.212Z,10.22
2018-03-27T12:59:29.759Z,10.54
2018-03-27T13:01:57.291Z,10.40
2018-03-27T13:04:24.809Z,9.71
2018-03-27T13:06:52.321Z,9.95
2018-03-27T13:09:19.866Z,10.15
2018-03-27T13:11:47.394Z,9.96
2018-03-27T13:14:14.948Z,10.43
2018-03-27T13:16:42.497Z,10.36
2018-03-27T13:19:10.213Z,9.98
2018-03-27T13:21:37.767Z,10.06
2018-03-27T13:24:05.296Z,10.21
2018-03-27T13:26:32.859Z,10.37
2018-03-27T13:29:00.360Z,10.53
2018-03-27T13:31:27.899Z,10.54
2018-03-27T13:33:55.432Z,10.32
2018-03-27T13:36:22.960Z,10.33
2018-03-27T13:38:50.536Z,10.42
2018-03-27T13:41:18.072Z,10.59
2018-03-27T13:43:45.610Z,10.68
2018-03-27T13:46:13.168Z,10.55
2018-03-27T13:48:40.687Z,10.32
2018-03-27T13:51:08.188Z,10.36
2018-03-27T13:53:35.720Z,10.55
2018-03-27T13:56:03.237Z,10.77
2018-03-27T13:58:30.762Z,10.55
2018-03-27T14:00:58.342Z,10.62
2018-03-27T14:03:25.868Z,10.59
2018-03-27T14:05:53.398Z,10.48
2018-03-27T14:08:20.897Z,10.53
2018-03-27T14:10:50.183Z,10.41
2018-03-27T14:13:17.787Z,10.14
2018-03-27T14:15:45.315Z,10.02
2018-03-27T14:18:12.825Z,9.91
2018-03-27T14:20:43.765Z,9.82
2018-03-27T14:23:11.291Z,9.80
2018-03-27T14:25:38.818Z,9.62
2018-03-27T14:28:06.373Z,9.65
2018-03-27T14:30:33.975Z,9.76
2018-03-27T14:33:01.479Z,9.85
2018-03-27T14:35:28.997Z,9.75
2018-03-27T14:37:56.813Z,9.54
2018-03-27T14:40:24.353Z,9.66
2018-03-27T14:42:51.903Z,9.61
2018-03-27T14:45:19.464Z,9.52
2018-03-27T14:47:46.985Z,9.51
2018-03-27T14:50:14.958Z,9.45
2018-03-27T14:52:42.488Z,9.52
2018-03-27T14:55:09.986Z,9.30
2018-03-27T14:57:37.518Z,9.30
2018-03-27T15:00:05.040Z,9.36
2018-03-27T15:02:32.530Z,9.48
2018-03-27T15:05:00.021Z,9.45
2018-03-27T15:07:27.553Z,9.36
2018-03-27T15:09:55.101Z,9.35
2018-03-27T15:12:22.649Z,9.19
2018-03-27T15:14:50.200Z,9.26
2018-03-27T15:17:17.816Z,9.17
2018-03-27T15:19:45.368Z,9.23
2018-03-27T15:22:12.889Z,9.25
2018-03-27T15:24:40.432Z,9.30
2018-03-27T15:27:07.930Z,9.31
2018-03-27T15:29:35.468Z,9.41
2018-03-27T15:32:03.118Z,9.50
2018-03-27T15:34:30.667Z,9.34
2018-03-27T15:36:58.219Z,9.42
2018-03-27T15:39:25.741Z,9.39
2018-03-27T15:41:53.278Z,9.23
2018-03-27T15:44:20.777Z,9.33
2018-03-27T15:46:48.350Z,9.28
2018-03-27T15:49:15.883Z,9.36
2018-03-27T15:51:43.441Z,9.34
2018-03-27T15:54:10.968Z,9.37
2018-03-27T15:56:38.507Z,9.40
2018-03-27T15:59:06.135Z,9.39
2018-03-27T16:01:33.685Z,9.43
2018-03-27T16:04:01.233Z,9.34
2018-03-27T16:06:28.786Z,9.38
2018-03-27T16:08:56.305Z,9.29
2018-03-27T16:11:23.819Z,9.29
2018-03-27T16:13:51.364Z,9.29
2018-03-27T16:16:19.746Z,9.27
2018-03-27T16:18:53.257Z,9.22
2018-03-27T16:21:20.797Z,9.27
2018-03-27T16:23:48.349Z,9.15
2018-03-27T16:26:15.853Z,9.15
2018-03-27T16:28:43.388Z,9.15
2018-03-27T16:31:10.904Z,9.12
2018-03-27T16:33:38.413Z,9.06
2018-03-27T16:36:05.954Z,9.08
2018-03-27T16:38:33.500Z,9.01
2018-03-27T16:41:01.041Z,9.00
2018-03-27T16:43:28.531Z,9.03
2018-03-27T16:45:56.058Z,8.90
2018-03-27T16:48:23.581Z,8.99
2018-03-27T16:50:51.109Z,8.94
2018-03-27T16:53:18.646Z,8.88
2018-03-27T16:55:46.183Z,8.82
2018-03-27T16:58:13.731Z,8.81
2018-03-27T17:00:41.276Z,8.84
2018-03-27T17:03:08.827Z,8.83
2018-03-27T17:05:36.372Z,8.79
2018-03-27T17:08:03.947Z,8.80
2018-03-27T17:10:31.493Z,8.74
2018-03-27T17:12:58.997Z,8.75
2018-03-27T17:15:26.516Z,8.75
2018-03-27T17:17:54.107Z,8.69
2018-03-27T17:20:23.386Z,8.68
2018-03-27T17:22:51.575Z,8.72
2018-03-27T17:25:19.085Z,8.59
2018-03-27T17:27:46.625Z,8.55
2018-03-27T17:30:14.167Z,8.52
2018-03-27T17:32:41.683Z,8.44
2018-03-27T17:35:09.181Z,8.47
2018-03-27T17:37:36.712Z,8.44
2018-03-27T17:40:04.269Z,8.44
2018-03-27T17:42:31.842Z,8.37
2018-03-27T17:44:59.468Z,8.37
2018-03-27T17:47:27.006Z,8.26
2018-03-27T17:49:56.711Z,8.23
2018-03-27T17:52:24.241Z,8.22
2018-03-27T17:54:51.824Z,8.24
2018-03-27T17:57:19.381Z,8.19
2018-03-27T17:59:47.162Z,8.16
2018-03-27T18:02:14.877Z,8.14
2018-03-27T18:04:43.301Z,8.13
2018-03-27T18:07:10.972Z,8.13
2018-03-27T18:09:41.977Z,8.04
2018-03-27T18:12:09.550Z,8.07
2018-03-27T18:14:38.240Z,8.06
2018-03-27T18:17:05.847Z,8.02
2018-03-27T18:19:34.882Z,8.03
2018-03-27T18:22:06.640Z,8.07
2018-03-27T18:24:34.181Z,8.08
2018-03-27T18:27:01.713Z,8.06
2018-03-27T18:29:29.620Z,8.01
2018-03-27T18:31:58.922Z,7.99
2018-03-27T18:34:26.798Z,7.99
2018-03-27T18:36:54.373Z,7.97
2018-03-27T18:39:23.821Z,7.94
2018-03-27T18:41:53.838Z,7.95
2018-03-27T18:44:22.304Z,7.96
2018-03-27T18:46:52.444Z,7.99
2018-03-27T18:49:20.033Z,8.00
2018-03-27T18:51:47.594Z,7.95
2018-03-27T18:54:15.149Z,7.92
2018-03-27T18:56:42.675Z,7.91
2018-03-27T18:59:10.184Z,7.90
2018-03-27T19:01:37.728Z,7.87
2018-03-27T19:04:05.243Z,7.86
2018-03-27T19:06:32.802Z,7.88
2018-03-27T19:09:00.340Z,7.85
2018-03-27T19:11:27.869Z,7.83
2018-03-27T19:13:55.405Z,7.81
2018-03-27T19:16:22.928Z,7.80
2018-03-27T19:18:50.451Z,7.81
2018-03-27T19:21:17.979Z,7.78
2018-03-27T19:23:45.481Z,7.74
2018-03-27T19:26:13.012Z,7.77
2018-03-27T19:28:40.696Z,7.78
2018-03-27T19:31:09.151Z,7.69
2018-03-27T19:33:36.958Z,7.67
2018-03-27T19:36:04.506Z,7.66
2018-03-27T19:38:32.852Z,7.66
2018-03-27T19:41:00.381Z,7.64
2018-03-27T19:43:27.977Z,7.63
2018-03-27T19:45:55.516Z,7.60
2018-03-27T19:48:23.067Z,7.57
2018-03-27T19:50:50.603Z,7.57
2018-03-27T19:53:18.126Z,7.56
2018-03-27T19:55:45.655Z,7.55
2018-03-27T19:58:13.192Z,7.52
2018-03-27T20:00:40.704Z,7.47
2018-03-27T20:03:08.244Z,7.46
2018-03-27T20:08:38.125Z,7.42
2018-03-27T20:11:05.631Z,7.36
2018-03-27T20:13:33.139Z,7.36
2018-03-27T20:16:00.775Z,7.34
2018-03-27T20:18:28.264Z,7.31
2018-03-27T20:20:55.753Z,7.29
2018-03-27T20:23:23.276Z,7.23
2018-03-27T20:25:50.760Z,7.22
2018-03-27T20:28:18.273Z,7.20
2018-03-27T20:30:45.749Z,7.17
2018-03-27T20:33:13.966Z,7.15
2018-03-27T20:35:41.473Z,7.11
2018-03-27T20:38:09.001Z,7.06
2018-03-27T20:40:36.456Z,7.03
2018-03-27T20:43:03.961Z,7.03
2018-03-27T20:45:31.462Z,7.01
2018-03-27T20:47:58.976Z,6.93
2018-03-27T20:50:26.496Z,6.84
2018-03-27T20:52:54.039Z,6.81
2018-03-27T20:55:21.554Z,6.81
2018-03-27T20:57:49.081Z,6.78
2018-03-27T21:00:16.574Z,6.69
2018-03-27T21:02:44.076Z,6.67
2018-03-27T21:05:11.561Z,6.59
2018-03-27T21:07:39.086Z,6.59
2018-03-27T21:10:06.585Z,6.56
2018-03-27T21:12:36.762Z,6.54
2018-03-27T21:15:04.409Z,6.45
2018-03-27T21:17:31.950Z,6.42
2018-03-27T21:19:59.413Z,6.37
2018-03-27T21:22:26.943Z,6.40
2018-03-27T21:24:54.498Z,6.38
2018-03-27T21:27:21.977Z,6.34
2018-03-27T21:29:49.493Z,6.31
2018-03-27T21:32:16.986Z,6.26
2018-03-27T21:34:44.542Z,6.24
2018-03-27T21:37:12.498Z,6.19
2018-03-27T21:39:40.045Z,6.08
2018-03-27T21:42:07.537Z,6.07
2018-03-27T21:44:35.045Z,5.98
2018-03-27T21:47:02.554Z,6.08
2018-03-27T21:49:30.136Z,5.99
2018-03-27T21:51:57.708Z,5.97
2018-03-27T21:54:25.200Z,5.85
2018-03-27T21:56:52.687Z,5.70
2018-03-27T21:59:21.935Z,5.68
2018-03-27T22:01:49.433Z,5.76
2018-03-27T22:04:16.924Z,5.72
2018-03-27T22:06:44.453Z,5.66
2018-03-27T22:09:11.922Z,5.64
2018-03-27T22:11:39.524Z,5.65
2018-03-27T22:14:08.093Z,5.67
2018-03-27T22:16:35.971Z,5.62
2018-03-27T22:19:03.810Z,5.59
2018-03-27T22:21:31.378Z,5.56
2018-03-27T22:23:58.893Z,5.54
2018-03-27T22:26:26.399Z,5.56
2018-03-27T22:28:53.891Z,5.60
2018-03-27T22:31:21.424Z,5.60
2018-03-27T22:33:49.250Z,5.57
2018-03-27T22:36:16.876Z,5.52
2018-03-27T22:38:44.397Z,5.54
2018-03-27T22:41:11.915Z,5.50
2018-03-27T22:43:39.447Z,5.49
2018-03-27T22:46:06.930Z,5.50
2018-03-27T22:48:34.450Z,5.50
2018-03-27T22:51:02.017Z,5.49
2018-03-27T22:53:29.542Z,5.46
2018-03-27T22:55:57.046Z,5.46
2018-03-27T22:58:25.635Z,5.45
2018-03-27T23:00:53.233Z,5.41
2018-03-27T23:03:20.758Z,5.39
2018-03-27T23:05:48.300Z,5.40
2018-03-27T23:08:15.784Z,5.41
2018-03-27T23:10:43.336Z,5.39
2018-03-27T23:13:10.827Z,5.40
2018-03-27T23:15:38.343Z,5.40
2018-03-27T23:18:05.848Z,5.42
2018-03-27T23:20:33.322Z,5.41
2018-03-27T23:23:00.834Z,5.36
2018-03-27T23:25:28.342Z,5.39
2018-03-27T23:27:55.883Z,5.33
2018-03-27T23:30:23.420Z,5.33
2018-03-27T23:32:50.942Z,5.33
2018-03-27T23:35:18.405Z,5.36
2018-03-27T23:37:45.900Z,5.30
2018-03-27T23:40:13.537Z,5.30
2018-03-27T23:42:41.072Z,5.30
2018-03-27T23:45:08.577Z,5.29
2018-03-27T23:47:36.088Z,5.22
2018-03-27T23:50:03.559Z,5.19
2018-03-27T23:52:31.060Z,5.20
2018-03-27T23:54:58.561Z,5.14
2018-03-27T23:57:26.390Z,5.13
2018-03-27T23:59:53.888Z,5.10
